createdAt,value
2023-04-09T00:00:52.632Z,0.00
2023-04-09T00:01:52.656Z,0.00
2023-04-09T00:02:52.670Z,0.00
2023-04-09T00:03:52.636Z,0.00
2023-04-09T00:04:52.758Z,0.00
2023-04-09T00:05:52.593Z,0.00
2023-04-09T00:06:52.574Z,0.00
2023-04-09T00:07:52.569Z,0.00
2023-04-09T00:08:52.853Z,0.00
2023-04-09T00:09:52.540Z,0.00
2023-04-09T00:10:58.537Z,0.00
2023-04-09T00:11:52.521Z,0.00
2023-04-09T00:12:52.513Z,0.00
2023-04-09T00:13:52.496Z,0.00
2023-04-09T00:14:52.493Z,0.00
2023-04-09T00:15:52.508Z,0.00
2023-04-09T00:16:52.485Z,0.00
2023-04-09T00:17:52.538Z,0.00
2023-04-09T00:18:58.451Z,0.00
2023-04-09T00:19:52.429Z,0.00
2023-04-09T00:20:52.455Z,0.00
2023-04-09T00:21:52.412Z,0.00
2023-04-09T00:22:52.401Z,0.00
2023-04-09T00:23:52.392Z,0.00
2023-04-09T00:24:52.382Z,0.00
2023-04-09T00:25:52.372Z,0.00
2023-04-09T00:26:52.365Z,0.00
2023-04-09T00:27:52.344Z,0.00
2023-04-09T00:28:52.717Z,0.00
2023-04-09T00:29:52.323Z,0.00
2023-04-09T00:30:52.325Z,0.00
2023-04-09T00:31:52.320Z,0.00
2023-04-09T00:32:52.376Z,0.00
2023-04-09T00:33:52.286Z,0.00
2023-04-09T00:34:52.292Z,0.00
2023-04-09T00:35:52.290Z,0.00
2023-04-09T00:36:52.290Z,0.00
2023-04-09T00:37:52.235Z,0.00
2023-04-09T00:38:52.504Z,0.00
2023-04-09T00:39:52.215Z,0.00
2023-04-09T00:40:52.221Z,0.00
2023-04-09T00:41:52.194Z,0.00
2023-04-09T00:42:52.198Z,0.00
2023-04-09T00:43:52.180Z,0.00
2023-04-09T00:44:52.168Z,0.00
2023-04-09T00:45:52.252Z,0.00
2023-04-09T00:46:52.169Z,0.00
2023-04-09T00:47:52.157Z,0.00
2023-04-09T00:48:52.423Z,0.00
2023-04-09T00:49:52.109Z,0.00
2023-04-09T00:50:52.106Z,0.00
2023-04-09T00:51:52.087Z,0.00
2023-04-09T00:52:52.121Z,0.00
2023-04-09T00:53:52.073Z,0.00
2023-04-09T00:54:52.065Z,0.00
2023-04-09T00:55:52.046Z,0.00
2023-04-09T00:56:52.045Z,0.00
2023-04-09T00:57:52.022Z,0.00
2023-04-09T00:58:52.407Z,0.00
2023-04-09T00:59:52.005Z,0.00
2023-04-09T01:00:52.029Z,0.00
2023-04-09T01:01:51.999Z,0.00
2023-04-09T01:02:52.043Z,0.00
2023-04-09T01:03:51.995Z,0.00
2023-04-09T01:04:51.963Z,0.00
2023-04-09T01:05:51.940Z,0.00
2023-04-09T01:06:51.937Z,0.00
2023-04-09T01:07:51.918Z,0.00
2023-04-09T01:08:52.381Z,0.00
2023-04-09T01:09:51.896Z,0.00
2023-04-09T01:10:51.891Z,0.00
2023-04-09T01:11:51.874Z,0.00
2023-04-09T01:12:51.872Z,0.00
2023-04-09T01:13:51.861Z,0.00
2023-04-09T01:14:51.854Z,0.00
2023-04-09T01:15:52.026Z,0.00
2023-04-09T01:16:51.982Z,0.00
2023-04-09T01:17:51.820Z,0.00
2023-04-09T01:18:52.030Z,0.00
2023-04-09T01:19:51.787Z,0.00
2023-04-09T01:20:51.995Z,0.00
2023-04-09T01:21:57.784Z,0.00
2023-04-09T01:22:51.781Z,0.00
2023-04-09T01:23:51.771Z,0.00
2023-04-09T01:24:51.764Z,0.00
2023-04-09T01:25:51.723Z,0.00
2023-04-09T01:26:51.723Z,0.00
2023-04-09T01:27:51.708Z,0.00
2023-04-09T01:28:51.902Z,0.00
2023-04-09T01:29:51.693Z,0.00
2023-04-09T01:30:51.756Z,0.00
2023-04-09T01:31:51.665Z,0.00
2023-04-09T01:32:51.717Z,0.00
2023-04-09T01:33:51.645Z,0.00
2023-04-09T01:34:51.645Z,0.00
2023-04-09T01:35:51.633Z,0.00
2023-04-09T01:36:51.620Z,0.00
2023-04-09T01:37:51.606Z,0.00
2023-04-09T01:38:51.833Z,0.00
2023-04-09T01:39:51.579Z,0.00
2023-04-09T01:40:51.737Z,0.00
2023-04-09T01:41:51.566Z,0.00
2023-04-09T01:42:51.549Z,0.00
2023-04-09T01:43:51.534Z,0.00
2023-04-09T01:44:51.535Z,0.00
2023-04-09T01:45:51.526Z,0.00
2023-04-09T01:46:51.511Z,0.00
2023-04-09T01:47:51.505Z,0.00
2023-04-09T01:48:51.800Z,0.00
2023-04-09T01:49:51.474Z,0.00
2023-04-09T01:50:51.465Z,0.00
2023-04-09T01:51:51.451Z,0.00
2023-04-09T01:52:51.457Z,0.00
2023-04-09T01:53:51.435Z,0.00
2023-04-09T01:54:51.433Z,0.00
2023-04-09T01:55:51.434Z,0.00
2023-04-09T01:56:51.441Z,0.00
2023-04-09T01:57:51.382Z,0.00
2023-04-09T01:58:51.648Z,0.00
2023-04-09T01:59:51.363Z,0.00
2023-04-09T02:00:51.358Z,0.00
2023-04-09T02:01:51.433Z,0.00
2023-04-09T02:02:51.522Z,0.00
2023-04-09T02:03:51.511Z,0.00
2023-04-09T02:04:51.322Z,0.00
2023-04-09T02:05:51.302Z,0.00
2023-04-09T02:06:51.313Z,0.00
2023-04-09T02:07:51.281Z,0.00
2023-04-09T02:08:51.552Z,0.00
2023-04-09T02:09:51.256Z,0.00
2023-04-09T02:10:51.260Z,0.00
2023-04-09T02:11:51.240Z,0.00
2023-04-09T02:12:51.269Z,0.00
2023-04-09T02:13:51.216Z,0.00
2023-04-09T02:14:51.221Z,0.00
2023-04-09T02:15:51.203Z,0.00
2023-04-09T02:16:51.217Z,0.00
2023-04-09T02:17:51.197Z,0.00
2023-04-09T02:18:51.369Z,0.00
2023-04-09T02:19:51.153Z,0.00
2023-04-09T02:20:51.152Z,0.00
2023-04-09T02:21:51.145Z,0.00
2023-04-09T02:22:51.131Z,0.00
2023-04-09T02:23:51.119Z,0.00
2023-04-09T02:24:51.117Z,0.00
2023-04-09T02:25:51.092Z,0.00
2023-04-09T02:26:51.085Z,0.00
2023-04-09T02:27:51.072Z,0.00
2023-04-09T02:28:51.457Z,0.00
2023-04-09T02:29:51.047Z,0.00
2023-04-09T02:30:51.075Z,0.00
2023-04-09T02:31:51.020Z,0.00
2023-04-09T02:32:51.048Z,0.00
2023-04-09T02:33:51.025Z,0.00
2023-04-09T02:34:50.998Z,0.00
2023-04-09T02:35:51.018Z,0.00
2023-04-09T02:36:50.986Z,0.00
2023-04-09T02:37:50.961Z,0.00
2023-04-09T02:38:51.179Z,0.00
2023-04-09T02:39:50.944Z,0.00
2023-04-09T02:40:50.934Z,0.00
2023-04-09T02:41:50.920Z,0.00
2023-04-09T02:42:50.923Z,0.00
2023-04-09T02:43:50.902Z,0.00
2023-04-09T02:44:50.922Z,0.00
2023-04-09T02:45:50.889Z,0.00
2023-04-09T02:46:50.870Z,0.00
2023-04-09T02:47:50.890Z,0.00
2023-04-09T02:48:51.100Z,0.00
2023-04-09T02:49:50.934Z,0.00
2023-04-09T02:50:50.837Z,0.00
2023-04-09T02:51:50.823Z,0.00
2023-04-09T02:52:50.811Z,0.00
2023-04-09T02:53:50.794Z,0.00
2023-04-09T02:54:50.799Z,0.00
2023-04-09T02:55:50.771Z,0.00
2023-04-09T02:56:50.787Z,0.00
2023-04-09T02:57:56.766Z,0.00
2023-04-09T02:58:50.954Z,0.00
2023-04-09T02:59:50.745Z,0.00
2023-04-09T03:00:50.758Z,0.00
2023-04-09T03:01:50.809Z,0.00
2023-04-09T03:02:50.837Z,0.00
2023-04-09T03:03:50.764Z,0.00
2023-04-09T03:04:50.708Z,0.00
2023-04-09T03:05:50.669Z,0.00
2023-04-09T03:06:50.659Z,0.00
2023-04-09T03:07:50.656Z,0.00
2023-04-09T03:08:50.824Z,0.00
2023-04-09T03:09:50.621Z,0.00
2023-04-09T03:10:50.624Z,0.00
2023-04-09T03:11:50.613Z,0.00
2023-04-09T03:12:50.604Z,0.00
2023-04-09T03:13:50.586Z,0.00
2023-04-09T03:14:50.585Z,0.00
2023-04-09T03:15:50.581Z,0.00
2023-04-09T03:16:50.684Z,0.00
2023-04-09T03:17:50.611Z,0.00
2023-04-09T03:18:56.571Z,0.00
2023-04-09T03:19:50.523Z,0.00
2023-04-09T03:20:50.521Z,0.00
2023-04-09T03:21:50.504Z,0.00
2023-04-09T03:22:50.498Z,0.00
2023-04-09T03:23:50.486Z,0.00
2023-04-09T03:24:50.481Z,0.00
2023-04-09T03:25:50.466Z,0.00
2023-04-09T03:26:50.457Z,0.00
2023-04-09T03:27:50.464Z,0.00
2023-04-09T03:28:50.754Z,0.00
2023-04-09T03:29:50.418Z,0.00
2023-04-09T03:30:50.520Z,0.00
2023-04-09T03:31:50.411Z,0.00
2023-04-09T03:32:50.683Z,0.00
2023-04-09T03:33:50.388Z,0.00
2023-04-09T03:34:50.377Z,0.00
2023-04-09T03:35:50.401Z,0.00
2023-04-09T03:36:50.352Z,0.00
2023-04-09T03:37:50.343Z,0.00
2023-04-09T03:38:50.720Z,0.00
2023-04-09T03:39:50.313Z,0.00
2023-04-09T03:40:50.313Z,0.00
2023-04-09T03:41:50.293Z,0.00
2023-04-09T03:42:50.395Z,0.00
2023-04-09T03:43:50.275Z,0.00
2023-04-09T03:44:50.276Z,0.00
2023-04-09T03:45:50.253Z,0.00
2023-04-09T03:46:50.267Z,0.00
2023-04-09T03:47:50.274Z,0.00
2023-04-09T03:48:50.502Z,0.00
2023-04-09T03:49:50.215Z,0.00
2023-04-09T03:50:50.211Z,0.00
2023-04-09T03:51:50.193Z,0.00
2023-04-09T03:52:50.193Z,0.00
2023-04-09T03:53:50.166Z,0.00
2023-04-09T03:54:50.166Z,0.00
2023-04-09T03:55:50.153Z,0.00
2023-04-09T03:56:50.145Z,0.00
2023-04-09T03:57:50.130Z,0.00
2023-04-09T03:58:50.380Z,0.00
2023-04-09T03:59:50.122Z,0.00
2023-04-09T04:00:50.101Z,0.00
2023-04-09T04:01:50.140Z,0.00
2023-04-09T04:02:50.527Z,0.00
2023-04-09T04:03:50.182Z,0.00
2023-04-09T04:04:50.231Z,0.00
2023-04-09T04:05:50.062Z,0.00
2023-04-09T04:06:50.260Z,0.00
2023-04-09T04:07:50.017Z,0.00
2023-04-09T04:08:50.178Z,0.00
2023-04-09T04:09:50.012Z,0.00
2023-04-09T04:10:50.002Z,0.00
2023-04-09T04:11:49.987Z,0.00
2023-04-09T04:12:50.005Z,0.00
2023-04-09T04:13:49.970Z,0.00
2023-04-09T04:14:49.959Z,0.00
2023-04-09T04:15:49.936Z,0.00
2023-04-09T04:16:49.938Z,0.00
2023-04-09T04:17:49.977Z,0.00
2023-04-09T04:18:50.174Z,0.00
2023-04-09T04:19:49.912Z,0.00
2023-04-09T04:20:49.915Z,0.00
2023-04-09T04:21:49.888Z,0.00
2023-04-09T04:22:49.883Z,0.00
2023-04-09T04:23:50.009Z,0.00
2023-04-09T04:24:49.852Z,0.00
2023-04-09T04:25:49.788Z,0.00
2023-04-09T04:26:49.768Z,0.00
2023-04-09T04:27:49.815Z,0.00
2023-04-09T04:28:50.049Z,0.00
2023-04-09T04:29:49.750Z,0.00
2023-04-09T04:30:49.754Z,0.00
2023-04-09T04:31:49.816Z,0.00
2023-04-09T04:32:49.729Z,0.00
2023-04-09T04:33:49.710Z,0.00
2023-04-09T04:34:49.687Z,0.00
2023-04-09T04:35:49.752Z,0.00
2023-04-09T04:36:49.693Z,0.00
2023-04-09T04:37:49.702Z,0.00
2023-04-09T04:38:49.663Z,0.00
2023-04-09T04:39:49.662Z,0.00
2023-04-09T04:40:49.630Z,0.00
2023-04-09T04:41:49.634Z,0.00
2023-04-09T04:42:49.623Z,0.00
2023-04-09T04:43:49.609Z,0.00
2023-04-09T04:44:49.581Z,0.00
2023-04-09T04:45:49.609Z,0.00
2023-04-09T04:46:49.571Z,0.00
2023-04-09T04:47:49.817Z,0.00
2023-04-09T04:48:49.691Z,0.00
2023-04-09T04:49:49.537Z,0.00
2023-04-09T04:50:49.519Z,0.00
2023-04-09T04:51:49.529Z,0.00
2023-04-09T04:52:49.529Z,5.62
2023-04-09T04:53:49.510Z,5.62
2023-04-09T04:54:49.488Z,5.62
2023-04-09T04:55:49.471Z,5.62
2023-04-09T04:56:49.454Z,5.62
2023-04-09T04:57:49.552Z,5.62
2023-04-09T04:58:49.573Z,5.62
2023-04-09T04:59:49.429Z,11.25
2023-04-09T05:00:49.449Z,11.25
2023-04-09T05:01:49.420Z,11.25
2023-04-09T05:02:49.513Z,11.25
2023-04-09T05:03:49.563Z,11.25
2023-04-09T05:04:49.380Z,11.25
2023-04-09T05:05:49.371Z,16.87
2023-04-09T05:06:49.356Z,16.87
2023-04-09T05:07:49.352Z,16.87
2023-04-09T05:08:49.356Z,16.87
2023-04-09T05:09:49.334Z,22.50
2023-04-09T05:10:49.315Z,22.50
2023-04-09T05:11:49.315Z,22.50
2023-04-09T05:12:49.331Z,22.50
2023-04-09T05:13:49.284Z,22.50
2023-04-09T05:14:49.288Z,28.12
2023-04-09T05:15:49.263Z,28.12
2023-04-09T05:16:49.285Z,28.12
2023-04-09T05:17:49.305Z,28.12
2023-04-09T05:18:49.286Z,33.75
2023-04-09T05:19:49.242Z,33.75
2023-04-09T05:20:49.222Z,33.75
2023-04-09T05:21:49.209Z,33.75
2023-04-09T05:22:49.184Z,39.37
2023-04-09T05:23:49.181Z,39.37
2023-04-09T05:24:49.186Z,39.37
2023-04-09T05:25:49.160Z,39.37
2023-04-09T05:26:49.145Z,45.00
2023-04-09T05:27:49.140Z,45.00
2023-04-09T05:28:49.125Z,45.00
2023-04-09T05:29:49.119Z,45.00
2023-04-09T05:30:49.152Z,50.62
2023-04-09T05:31:49.102Z,50.62
2023-04-09T05:32:49.135Z,50.62
2023-04-09T05:33:49.080Z,50.62
2023-04-09T05:34:49.063Z,50.62
2023-04-09T05:35:49.106Z,56.25
2023-04-09T05:36:49.042Z,56.25
2023-04-09T05:37:49.057Z,61.87
2023-04-09T05:38:49.026Z,61.87
2023-04-09T05:39:49.030Z,61.87
2023-04-09T05:40:49.031Z,61.87
2023-04-09T05:41:49.007Z,61.87
2023-04-09T05:42:48.979Z,61.87
2023-04-09T05:43:48.999Z,61.87
2023-04-09T05:44:48.960Z,61.87
2023-04-09T05:45:49.005Z,67.50
2023-04-09T05:46:48.934Z,67.50
2023-04-09T05:47:49.017Z,67.50
2023-04-09T05:48:48.938Z,73.12
2023-04-09T05:49:48.917Z,73.12
2023-04-09T05:50:55.128Z,73.12
2023-04-09T05:51:49.933Z,73.12
2023-04-09T05:52:48.974Z,73.12
2023-04-09T05:53:48.879Z,73.12
2023-04-09T05:54:48.873Z,78.75
2023-04-09T05:55:48.847Z,84.37
2023-04-09T05:56:48.866Z,90.00
2023-04-09T05:57:48.832Z,84.37
2023-04-09T05:58:48.812Z,84.37
2023-04-09T05:59:48.819Z,84.37
2023-04-09T06:00:48.799Z,84.37
2023-04-09T06:01:48.823Z,84.37
2023-04-09T06:02:48.927Z,90.00
2023-04-09T06:03:48.892Z,95.62
2023-04-09T06:04:48.772Z,101.25
2023-04-09T06:05:48.752Z,101.25
2023-04-09T06:06:48.736Z,101.25
2023-04-09T06:07:48.739Z,101.25
2023-04-09T06:08:48.735Z,106.87
2023-04-09T06:09:48.702Z,106.87
2023-04-09T06:10:48.687Z,106.87
2023-04-09T06:11:48.899Z,112.50
2023-04-09T06:12:48.699Z,112.50
2023-04-09T06:13:48.668Z,112.50
2023-04-09T06:14:48.649Z,112.50
2023-04-09T06:15:48.708Z,118.12
2023-04-09T06:16:48.633Z,118.12
2023-04-09T06:17:48.639Z,118.12
2023-04-09T06:18:48.604Z,118.12
2023-04-09T06:19:48.603Z,118.12
2023-04-09T06:20:48.592Z,123.75
2023-04-09T06:21:48.585Z,123.75
2023-04-09T06:22:48.582Z,123.75
2023-04-09T06:23:48.566Z,123.75
2023-04-09T06:24:54.544Z,129.37
2023-04-09T06:25:54.544Z,129.37
2023-04-09T06:26:48.523Z,129.37
2023-04-09T06:27:48.518Z,129.37
2023-04-09T06:28:48.580Z,129.37
2023-04-09T06:29:48.508Z,135.00
2023-04-09T06:30:48.500Z,135.00
2023-04-09T06:31:48.473Z,135.00
2023-04-09T06:32:54.369Z,135.00
2023-04-09T06:33:48.464Z,140.62
2023-04-09T06:34:48.459Z,140.62
2023-04-09T06:35:48.495Z,140.62
2023-04-09T06:36:48.625Z,140.62
2023-04-09T06:37:48.407Z,140.62
2023-04-09T06:38:54.402Z,146.25
2023-04-09T06:40:00.660Z,146.25
2023-04-09T06:40:49.406Z,146.25
2023-04-09T06:41:48.369Z,146.25
2023-04-09T06:42:48.351Z,146.25
2023-04-09T06:43:48.342Z,151.87
2023-04-09T06:44:48.346Z,151.87
2023-04-09T06:45:48.396Z,151.87
2023-04-09T06:46:48.386Z,151.87
2023-04-09T06:47:48.339Z,151.87
2023-04-09T06:48:48.287Z,151.87
2023-04-09T06:49:54.292Z,151.87
2023-04-09T06:50:54.265Z,157.50
2023-04-09T06:51:48.255Z,157.50
2023-04-09T06:52:48.250Z,157.50
2023-04-09T06:53:48.461Z,157.50
2023-04-09T06:54:48.219Z,157.50
2023-04-09T06:55:48.227Z,157.50
2023-04-09T06:56:48.217Z,157.50
2023-04-09T06:57:48.402Z,157.50
2023-04-09T06:58:48.284Z,157.50
2023-04-09T06:59:48.180Z,163.12
2023-04-09T07:00:48.174Z,163.12
2023-04-09T07:01:48.300Z,163.12
2023-04-09T07:02:48.411Z,163.12
2023-04-09T07:03:48.158Z,163.12
2023-04-09T07:04:48.235Z,163.12
2023-04-09T07:05:54.137Z,163.12
2023-04-09T07:06:48.095Z,163.12
2023-04-09T07:07:48.099Z,163.12
2023-04-09T07:08:48.072Z,163.12
2023-04-09T07:09:48.064Z,163.12
2023-04-09T07:10:48.053Z,163.12
2023-04-09T07:11:48.047Z,168.75
2023-04-09T07:12:48.026Z,168.75
2023-04-09T07:13:48.033Z,168.75
2023-04-09T07:14:48.007Z,168.75
2023-04-09T07:15:48.033Z,168.75
2023-04-09T07:16:48.013Z,168.75
2023-04-09T07:17:48.019Z,168.75
2023-04-09T07:18:47.961Z,174.37
2023-04-09T07:19:47.961Z,174.37
2023-04-09T07:20:48.142Z,174.37
2023-04-09T07:21:47.945Z,174.37
2023-04-09T07:22:47.919Z,174.37
2023-04-09T07:23:47.912Z,174.37
2023-04-09T07:24:47.895Z,174.37
2023-04-09T07:25:47.892Z,174.37
2023-04-09T07:26:48.377Z,180.00
2023-04-09T07:27:47.870Z,180.00
2023-04-09T07:28:47.855Z,180.00
2023-04-09T07:29:47.847Z,180.00
2023-04-09T07:30:53.833Z,180.00
2023-04-09T07:31:47.957Z,180.00
2023-04-09T07:32:53.876Z,180.00
2023-04-09T07:33:54.163Z,180.00
2023-04-09T07:34:47.788Z,185.62
2023-04-09T07:35:47.814Z,185.62
2023-04-09T07:36:47.765Z,185.62
2023-04-09T07:37:47.966Z,185.62
2023-04-09T07:38:47.741Z,191.25
2023-04-09T07:39:47.742Z,191.25
2023-04-09T07:40:47.719Z,191.25
2023-04-09T07:41:47.718Z,191.25
2023-04-09T07:42:47.708Z,191.25
2023-04-09T07:43:47.917Z,191.25
2023-04-09T07:44:47.704Z,196.87
2023-04-09T07:45:47.882Z,196.87
2023-04-09T07:46:47.698Z,196.87
2023-04-09T07:47:47.665Z,196.87
2023-04-09T07:48:48.476Z,196.87
2023-04-09T07:49:47.635Z,202.50
2023-04-09T07:50:47.621Z,202.50
2023-04-09T07:51:47.633Z,202.50
2023-04-09T07:52:47.606Z,202.50
2023-04-09T07:53:47.588Z,208.12
2023-04-09T07:54:47.595Z,208.12
2023-04-09T07:55:47.579Z,208.12
2023-04-09T07:56:47.549Z,208.12
2023-04-09T07:57:47.545Z,213.75
2023-04-09T07:58:47.743Z,213.75
2023-04-09T07:59:48.762Z,213.75
2023-04-09T08:00:47.504Z,213.75
2023-04-09T08:01:47.755Z,219.37
2023-04-09T08:02:47.608Z,219.37
2023-04-09T08:04:22.383Z,225.00
2023-04-09T08:05:22.170Z,225.00
2023-04-09T08:06:28.153Z,225.00
2023-04-09T08:07:22.347Z,230.62
2023-04-09T08:08:22.125Z,230.62
2023-04-09T08:09:22.124Z,236.25
2023-04-09T08:10:22.108Z,236.25
2023-04-09T08:11:22.113Z,241.87
2023-04-09T08:12:28.091Z,241.87
2023-04-09T08:13:22.091Z,241.87
2023-04-09T08:14:28.072Z,247.50
2023-04-09T08:16:01.050Z,247.50
2023-04-09T08:17:01.015Z,247.50
2023-04-09T08:18:01.014Z,253.12
2023-04-09T08:19:00.994Z,253.12
2023-04-09T08:20:00.990Z,253.12
2023-04-09T08:21:01.164Z,253.12
2023-04-09T08:22:00.944Z,253.12
2023-04-09T08:23:01.153Z,258.75
2023-04-09T08:24:06.930Z,258.75
2023-04-09T08:25:02.837Z,264.37
2023-04-09T08:26:00.920Z,270.00
2023-04-09T08:27:00.899Z,275.62
2023-04-09T08:28:00.879Z,275.62
2023-04-09T08:29:00.902Z,281.25
2023-04-09T08:30:00.860Z,281.25
2023-04-09T08:31:00.857Z,281.25
2023-04-09T08:32:00.906Z,286.87
2023-04-09T08:33:00.872Z,286.87
2023-04-09T08:34:00.836Z,292.50
2023-04-09T08:35:00.814Z,298.12
2023-04-09T08:36:03.085Z,298.12
2023-04-09T08:37:00.798Z,303.75
2023-04-09T08:38:00.781Z,303.75
2023-04-09T08:39:00.772Z,309.37
2023-04-09T08:40:00.764Z,309.37
2023-04-09T08:41:00.781Z,315.00
2023-04-09T08:42:00.744Z,320.62
2023-04-09T08:43:00.935Z,320.62
2023-04-09T08:44:00.720Z,326.25
2023-04-09T08:45:00.725Z,331.87
2023-04-09T08:46:00.759Z,337.50
2023-04-09T08:47:00.699Z,343.12
2023-04-09T08:48:00.840Z,343.12
2023-04-09T08:49:00.678Z,343.12
2023-04-09T08:50:00.669Z,343.12
2023-04-09T08:51:00.866Z,343.12
2023-04-09T08:52:01.163Z,348.75
2023-04-09T08:53:00.626Z,348.75
2023-04-09T08:54:03.715Z,354.37
2023-04-09T08:55:00.677Z,354.37
2023-04-09T08:56:00.596Z,360.00
2023-04-09T08:57:00.601Z,365.62
2023-04-09T08:58:00.566Z,365.62
2023-04-09T08:59:00.567Z,371.25
2023-04-09T09:00:00.593Z,371.25
2023-04-09T09:01:00.580Z,376.87
2023-04-09T09:02:00.617Z,376.87
2023-04-09T09:03:00.823Z,376.87
2023-04-09T09:04:00.579Z,382.50
2023-04-09T09:05:00.510Z,382.50
2023-04-09T09:06:00.491Z,388.12
2023-04-09T09:07:00.483Z,388.12
2023-04-09T09:08:00.495Z,393.75
2023-04-09T09:09:00.464Z,393.75
2023-04-09T09:10:00.448Z,399.37
2023-04-09T09:11:00.446Z,405.00
2023-04-09T09:12:00.421Z,416.25
2023-04-09T09:13:00.432Z,433.12
2023-04-09T09:14:00.402Z,444.37
2023-04-09T09:15:00.394Z,455.62
2023-04-09T09:16:00.384Z,466.87
2023-04-09T09:17:00.436Z,466.87
2023-04-09T09:18:06.397Z,466.87
2023-04-09T09:19:00.571Z,461.25
2023-04-09T09:20:00.338Z,466.87
2023-04-09T09:21:00.335Z,478.12
2023-04-09T09:22:00.316Z,489.37
2023-04-09T09:23:06.348Z,309.37
2023-04-09T09:24:00.296Z,478.12
2023-04-09T09:25:00.302Z,388.12
2023-04-09T09:26:00.482Z,506.25
2023-04-09T09:27:00.474Z,540.00
2023-04-09T09:28:00.256Z,579.37
2023-04-09T09:29:00.264Z,540.00
2023-04-09T09:30:00.244Z,641.25
2023-04-09T09:31:00.296Z,658.12
2023-04-09T09:32:00.218Z,669.37
2023-04-09T09:33:00.242Z,573.75
2023-04-09T09:34:00.194Z,461.25
2023-04-09T09:35:00.394Z,579.37
2023-04-09T09:36:00.224Z,613.12
2023-04-09T09:37:00.177Z,630.00
2023-04-09T09:38:00.159Z,618.75
2023-04-09T09:39:00.181Z,601.87
2023-04-09T09:40:00.162Z,601.87
2023-04-09T09:41:00.149Z,590.62
2023-04-09T09:42:00.139Z,585.00
2023-04-09T09:43:00.315Z,585.00
2023-04-09T09:44:00.118Z,579.37
2023-04-09T09:45:00.114Z,585.00
2023-04-09T09:46:00.147Z,562.50
2023-04-09T09:47:00.131Z,562.50
2023-04-09T09:48:00.108Z,573.75
2023-04-09T09:49:00.058Z,388.12
2023-04-09T09:50:00.044Z,579.37
2023-04-09T09:51:00.047Z,573.75
2023-04-09T09:52:00.040Z,573.75
2023-04-09T09:53:00.024Z,562.50
2023-04-09T09:54:00.015Z,556.87
2023-04-09T09:55:06.025Z,382.50
2023-04-09T09:55:59.999Z,556.87
2023-04-09T09:57:00.183Z,495.00
2023-04-09T09:57:59.958Z,523.12
2023-04-09T09:59:00.178Z,382.50
2023-04-09T09:59:59.960Z,585.00
2023-04-09T10:00:59.965Z,382.50
2023-04-09T10:02:00.142Z,601.87
2023-04-09T10:03:00.021Z,630.00
2023-04-09T10:03:59.934Z,433.12
2023-04-09T10:04:59.900Z,455.62
2023-04-09T10:05:59.879Z,478.12
2023-04-09T10:06:59.874Z,489.37
2023-04-09T10:07:59.862Z,500.62
2023-04-09T10:08:59.859Z,528.75
2023-04-09T10:09:59.846Z,579.37
2023-04-09T10:10:59.865Z,551.25
2023-04-09T10:11:59.835Z,585.00
2023-04-09T10:12:59.826Z,607.50
2023-04-09T10:13:59.811Z,596.25
2023-04-09T10:14:59.794Z,556.87
2023-04-09T10:15:59.806Z,523.12
2023-04-09T10:16:59.787Z,489.37
2023-04-09T10:17:59.863Z,472.50
2023-04-09T10:18:59.765Z,461.25
2023-04-09T10:19:59.748Z,461.25
2023-04-09T10:20:59.745Z,472.50
2023-04-09T10:21:59.710Z,495.00
2023-04-09T10:22:59.716Z,500.62
2023-04-09T10:23:59.696Z,500.62
2023-04-09T10:24:59.895Z,517.50
2023-04-09T10:25:59.675Z,523.12
2023-04-09T10:26:59.695Z,534.37
2023-04-09T10:27:59.656Z,562.50
2023-04-09T10:28:59.649Z,849.37
2023-04-09T10:29:59.639Z,652.50
2023-04-09T10:30:59.738Z,646.87
2023-04-09T10:31:59.617Z,646.87
2023-04-09T10:32:59.639Z,641.25
2023-04-09T10:34:05.603Z,641.25
2023-04-09T10:34:59.598Z,635.62
2023-04-09T10:35:59.810Z,624.37
2023-04-09T10:36:59.615Z,596.25
2023-04-09T10:37:59.597Z,562.50
2023-04-09T10:38:59.563Z,545.62
2023-04-09T10:39:59.527Z,528.75
2023-04-09T10:40:59.530Z,523.12
2023-04-09T10:41:59.528Z,523.12
2023-04-09T10:42:59.536Z,528.75
2023-04-09T10:43:59.486Z,545.62
2023-04-09T10:44:59.490Z,562.50
2023-04-09T10:45:59.619Z,573.75
2023-04-09T10:46:59.876Z,725.62
2023-04-09T10:48:05.510Z,635.62
2023-04-09T10:48:59.646Z,675.00
2023-04-09T10:49:59.431Z,793.12
2023-04-09T10:50:59.435Z,759.37
2023-04-09T10:51:59.611Z,691.87
2023-04-09T10:52:59.414Z,675.00
2023-04-09T10:53:59.394Z,669.37
2023-04-09T10:55:01.432Z,669.37
2023-04-09T10:55:59.378Z,663.75
2023-04-09T10:56:59.358Z,658.12
2023-04-09T10:57:59.358Z,658.12
2023-04-09T10:58:59.370Z,652.50
2023-04-09T10:59:59.331Z,703.12
2023-04-09T11:00:59.320Z,776.25
2023-04-09T11:01:59.383Z,866.25
2023-04-09T11:02:59.558Z,1378.12
2023-04-09T11:03:59.298Z,1372.50
2023-04-09T11:04:59.421Z,1575.00
2023-04-09T11:05:59.278Z,3099.37
2023-04-09T11:07:05.279Z,3026.25
2023-04-09T11:07:59.456Z,1035.00
2023-04-09T11:08:59.233Z,990.00
2023-04-09T11:09:59.431Z,2131.87
2023-04-09T11:10:59.215Z,1659.37
2023-04-09T11:11:59.210Z,1918.12
2023-04-09T11:12:59.200Z,1541.25
2023-04-09T11:13:59.189Z,838.12
2023-04-09T11:14:59.196Z,1423.12
2023-04-09T11:15:59.223Z,1108.12
2023-04-09T11:16:59.149Z,945.00
2023-04-09T11:17:59.195Z,826.87
2023-04-09T11:18:59.139Z,900.00
2023-04-09T11:19:59.131Z,2075.62
2023-04-09T11:20:59.119Z,1507.50
2023-04-09T11:21:59.105Z,855.00
2023-04-09T11:22:59.092Z,843.75
2023-04-09T11:23:59.087Z,900.00
2023-04-09T11:24:59.078Z,798.75
2023-04-09T11:25:59.077Z,753.75
2023-04-09T11:26:59.271Z,742.50
2023-04-09T11:27:59.052Z,720.00
2023-04-09T11:28:59.023Z,725.62
2023-04-09T11:29:59.031Z,793.12
2023-04-09T11:30:59.041Z,967.50
2023-04-09T11:31:59.042Z,1704.37
2023-04-09T11:32:59.247Z,933.75
2023-04-09T11:33:58.984Z,928.12
2023-04-09T11:34:58.963Z,956.25
2023-04-09T11:36:05.029Z,826.87
2023-04-09T11:36:58.947Z,793.12
2023-04-09T11:37:58.945Z,781.87
2023-04-09T11:38:58.931Z,855.00
2023-04-09T11:39:58.919Z,1063.12
2023-04-09T11:40:59.135Z,860.62
2023-04-09T11:41:58.907Z,821.25
2023-04-09T11:42:58.897Z,922.50
2023-04-09T11:43:58.877Z,1828.12
2023-04-09T11:44:58.869Z,933.75
2023-04-09T11:45:58.859Z,855.00
2023-04-09T11:47:04.922Z,759.37
2023-04-09T11:47:58.937Z,714.37
2023-04-09T11:48:58.837Z,748.12
2023-04-09T11:49:58.811Z,933.75
2023-04-09T11:50:58.813Z,793.12
2023-04-09T11:51:59.006Z,753.75
2023-04-09T11:52:58.792Z,748.12
2023-04-09T11:53:58.774Z,804.37
2023-04-09T11:54:58.988Z,781.87
2023-04-09T11:55:58.757Z,765.00
2023-04-09T11:56:58.749Z,708.75
2023-04-09T11:58:04.742Z,658.12
2023-04-09T11:59:41.507Z,641.25
2023-04-09T12:00:41.483Z,658.12
2023-04-09T12:01:41.555Z,686.25
2023-04-09T12:02:47.622Z,652.50
2023-04-09T12:03:41.615Z,607.50
2023-04-09T12:04:41.465Z,590.62
2023-04-09T12:05:44.971Z,585.00
2023-04-09T12:06:41.613Z,585.00
2023-04-09T12:07:48.787Z,596.25
2023-04-09T12:08:42.447Z,596.25
2023-04-09T12:09:41.388Z,579.37
2023-04-09T12:10:41.568Z,579.37
2023-04-09T12:11:41.369Z,618.75
2023-04-09T12:12:41.353Z,675.00
2023-04-09T12:13:41.349Z,675.00
2023-04-09T12:14:41.380Z,691.87
2023-04-09T12:15:41.389Z,675.00
2023-04-09T12:16:41.393Z,680.62
2023-04-09T12:17:41.445Z,697.50
2023-04-09T12:18:41.376Z,703.12
2023-04-09T12:19:41.351Z,708.75
2023-04-09T12:20:47.601Z,708.75
2023-04-09T12:21:41.365Z,691.87
2023-04-09T12:22:41.393Z,731.25
2023-04-09T12:23:41.515Z,2936.25
2023-04-09T12:24:41.271Z,1462.50
2023-04-09T12:25:41.286Z,2238.75
2023-04-09T12:26:47.263Z,3538.12
2023-04-09T12:27:41.245Z,1333.12
2023-04-09T12:28:41.247Z,742.50
2023-04-09T12:29:47.272Z,691.87
2023-04-09T12:30:41.191Z,781.87
2023-04-09T12:31:41.258Z,1068.75
2023-04-09T12:32:41.187Z,1687.50
2023-04-09T12:33:41.179Z,1738.12
2023-04-09T12:34:41.178Z,900.00
2023-04-09T12:35:41.202Z,1591.87
2023-04-09T12:36:41.135Z,3251.25
2023-04-09T12:37:41.140Z,2216.25
2023-04-09T12:38:41.130Z,855.00
2023-04-09T12:39:41.121Z,1006.87
2023-04-09T12:40:41.108Z,3841.87
2023-04-09T12:41:41.082Z,3791.25
2023-04-09T12:42:41.290Z,3819.37
2023-04-09T12:43:43.376Z,4038.75
2023-04-09T12:44:41.064Z,1316.25
2023-04-09T12:45:41.119Z,4038.75
2023-04-09T12:46:41.051Z,1648.12
2023-04-09T12:47:41.080Z,2941.87
2023-04-09T12:48:41.032Z,2013.75
2023-04-09T12:49:42.373Z,1029.37
2023-04-09T12:50:41.047Z,894.37